Time;durP1;ratioP1;P1;durP2;ratioP2;P2;SDS_P1;SDS_P2;PMS_P1;PMS_P2;Temp;Humidity;BMP_temperature;BMP_pressure;BME280_temperature;BME280_humidity;BME280_pressure;Samples;Min_cycle;Max_cycle;Signal;HPM_P1;HPM_P2
2022/12/16 00:23:26;;;;;;;4.75;2.38;;;;;;;-8.82;65.27;99334.34;4900669;28;20095;-63
2022/12/16 00:26:22;;;;;;;7.72;2.50;;;;;;;-8.74;65.29;99343.16;4850580;28;20113;-64
2022/12/16 00:29:04;;;;;;;4.07;2.33;;;;;;;-8.81;64.78;99299.75;4907003;28;20041;-65
2022/12/16 00:31:51;;;;;;;6.00;2.40;;;;;;;-8.53;63.88;99342.41;4871891;28;20048;-64
2022/12/16 00:34:38;;;;;;;9.75;2.10;;;;;;;-8.48;63.98;99351.06;4891406;28;20073;-65
2022/12/16 00:40:20;;;;;;;7.28;2.67;;;;;;;-8.73;63.06;99352.50;4850686;28;20053;-66
2022/12/16 00:43:14;;;;;;;9.55;2.40;;;;;;;-8.69;63.20;99366.16;4873400;28;20059;-66
2022/12/16 00:45:54;;;;;;;7.05;2.50;;;;;;;-8.61;63.24;99364.84;4849944;28;20057;-64
2022/12/16 00:51:46;;;;;;;3.17;2.10;;;;;;;-8.54;62.04;99360.91;4880624;28;20073;-66
2022/12/16 00:54:38;;;;;;;5.22;2.22;;;;;;;-8.48;62.59;99362.06;4869490;28;20053;-67
2022/12/16 00:57:16;;;;;;;9.57;2.63;;;;;;;-8.43;62.64;99364.81;4851583;28;20037;-66
2022/12/16 01:00:17;;;;;;;12.50;2.53;;;;;;;-8.36;61.83;99366.78;4891131;28;20054;-65
2022/12/16 01:03:11;;;;;;;10.02;2.40;;;;;;;-8.30;61.72;99372.09;4861761;28;20046;-66
2022/12/16 01:05:53;;;;;;;6.97;1.92;;;;;;;-8.06;60.80;99384.13;4850076;28;20081;-65
2022/12/16 01:08:47;;;;;;;5.95;2.20;;;;;;;-8.11;59.63;99385.56;4824374;28;20047;-66
2022/12/16 01:11:27;;;;;;;9.60;2.67;;;;;;;-8.28;58.73;99385.72;4849800;28;20049;-66
2022/12/16 01:14:05;;;;;;;5.03;2.25;;;;;;;-8.11;59.05;99388.09;4862841;28;20076;-65
2022/12/16 01:16:56;;;;;;;7.20;2.15;;;;;;;-7.83;58.45;99393.59;4829340;28;20071;-65
2022/12/16 01:19:58;;;;;;;7.85;2.42;;;;;;;-7.34;58.95;99391.34;4832779;28;20130;-65
2022/12/16 01:22:34;;;;;;;6.30;2.30;;;;;;;-6.93;57.85;99394.69;4810890;28;20050;-66
2022/12/16 01:25:32;;;;;;;7.03;2.25;;;;;;;-6.53;57.05;99387.78;4865619;28;20113;-68
2022/12/16 01:28:22;;;;;;;8.93;2.30;;;;;;;-6.16;56.75;99391.69;4872206;28;20053;-67
2022/12/16 01:31:06;;;;;;;5.43;2.30;;;;;;;-6.19;56.22;99383.06;4836812;28;20461;-69
2022/12/16 01:33:52;;;;;;;7.47;2.30;;;;;;;-6.44;54.88;99391.47;4877185;28;20103;-70
2022/12/16 01:36:45;;;;;;;7.97;2.20;;;;;;;-6.45;56.38;99384.66;4878657;28;20057;-67
2022/12/16 01:39:30;;;;;;;6.47;2.25;;;;;;;-6.47;56.72;99386.28;4872376;28;20046;-67
2022/12/16 01:42:32;;;;;;;8.38;2.58;;;;;;;-6.34;58.68;99375.75;4895056;28;20052;-67
2022/12/16 01:45:47;;;;;;;12.18;2.47;;;;;;;-6.32;56.50;99377.53;4873816;28;20045;-66
2022/12/16 01:49:06;;;;;;;7.82;2.22;;;;;;;-6.52;54.10;99384.41;4844187;28;20466;-66
2022/12/16 01:51:52;;;;;;;6.25;2.35;;;;;;;-6.59;53.64;99382.47;4905403;28;20056;-68
2022/12/16 01:54:37;;;;;;;6.15;2.20;;;;;;;-6.95;51.86;99397.16;4875328;28;20241;-66
2022/12/16 01:57:38;;;;;;;1.73;1.42;;;;;;;-7.02;52.53;99397.72;4891529;28;20116;-65
2022/12/16 02:00:28;;;;;;;8.95;2.30;;;;;;;-6.85;52.15;99393.31;4882530;28;20098;-67
2022/12/16 02:03:07;;;;;;;4.93;2.40;;;;;;;-6.82;53.93;99399.38;4903813;28;20048;-66
2022/12/16 02:06:14;;;;;;;3.50;1.70;;;;;;;-6.81;54.06;99397.72;4878287;28;20045;-67
2022/12/16 02:09:05;;;;;;;6.82;2.03;;;;;;;-7.03;52.79;99399.41;4892233;28;20366;-67
2022/12/16 02:12:41;;;;;;;7.00;2.00;;;;;;;-7.05;53.47;99401.00;4875265;28;20059;-69
2022/12/16 02:15:49;;;;;;;7.57;2.40;;;;;;;-6.68;54.38;99405.00;4866459;28;20071;-67
2022/12/16 02:18:46;;;;;;;5.13;2.00;;;;;;;-6.46;53.21;99421.03;4875233;28;20057;-67
2022/12/16 02:22:02;;;;;;;11.10;2.40;;;;;;;-6.37;53.04;99422.25;4898087;28;20056;-68
2022/12/16 02:25:37;;;;;;;2.60;1.83;;;;;;;-5.93;53.14;99417.03;4859746;28;20056;-69
2022/12/16 02:28:21;;;;;;;4.82;2.05;;;;;;;-5.66;51.73;99400.19;4879660;28;20052;-73
2022/12/16 02:31:46;;;;;;;5.65;1.77;;;;;;;-5.49;51.48;99405.88;4889807;28;20053;-74
2022/12/16 02:34:44;;;;;;;5.95;2.03;;;;;;;-5.41;50.22;99434.13;4884098;28;20127;-71
2022/12/16 02:37:48;;;;;;;6.35;2.10;;;;;;;-5.63;51.09;99413.03;4896799;28;20048;-71
2022/12/16 02:40:40;;;;;;;;;;;;;;;-5.37;51.97;99414.72;4874348;28;20052;-69
2022/12/16 02:43:36;;;;;;;4.22;2.15;;;;;;;-5.16;52.20;99409.50;4899800;28;19939;-72
2022/12/16 02:46:32;;;;;;;5.55;2.33;;;;;;;-5.07;52.74;99419.94;4861738;28;20103;-68
2022/12/16 02:49:43;;;;;;;7.15;2.25;;;;;;;-5.09;52.63;99419.03;4879465;28;20082;-69
2022/12/16 02:52:41;;;;;;;6.03;1.92;;;;;;;-4.99;52.62;99418.53;4855630;28;20037;-68
2022/12/16 02:55:44;;;;;;;4.40;2.22;;;;;;;-4.96;52.23;99418.63;4827308;28;20043;-68
2022/12/16 02:58:36;;;;;;;6.32;2.05;;;;;;;-5.23;51.38;99371.06;4888769;28;20050;-68
2022/12/16 03:04:34;;;;;;;11.60;3.20;;;;;;;-5.92;52.67;99358.56;4850899;28;20048;-67
2022/12/16 03:07:20;;;;;;;4.82;2.05;;;;;;;-5.86;53.80;99368.13;4884407;28;20061;-67
2022/12/16 03:10:14;;;;;;;6.05;2.50;;;;;;;-5.76;52.73;99431.22;4896497;28;20045;-67
2022/12/16 03:13:04;;;;;;;3.30;2.15;;;;;;;-5.80;53.84;99424.28;4838269;28;20053;-69
2022/12/16 03:16:03;;;;;;;6.60;2.05;;;;;;;-5.90;53.70;99432.41;4861568;28;20554;-71
2022/12/16 03:18:59;;;;;;;10.18;2.13;;;;;;;-6.45;54.19;99415.16;4893545;28;20064;-68
2022/12/16 03:22:05;;;;;;;;;;;;;;;;;;;;;
2022/12/16 03:24:53;;;;;;;;;;;;;;;-7.07;54.93;99438.16;4794791;29;20051;-67
2022/12/16 03:27:59;;;;;;;5.80;2.05;;;;;;;-7.11;55.56;99426.16;4757562;29;19926;-67
2022/12/16 03:31:02;;;;;;;6.75;2.00;;;;;;;-7.03;55.40;99434.94;4750295;29;20256;-67
2022/12/16 03:33:50;;;;;;;8.13;2.30;;;;;;;-6.98;55.49;99438.53;4769029;29;20044;-68
2022/12/16 03:36:40;;;;;;;7.57;2.10;;;;;;;-6.97;56.23;99442.81;4790803;28;20063;-68
2022/12/16 03:39:16;;;;;;;7.30;2.30;;;;;;;-6.93;56.83;99440.41;4781822;29;20052;-68
2022/12/16 03:41:58;;;;;;;7.43;2.30;;;;;;;-6.91;56.68;99452.38;4780207;29;20047;-69
2022/12/16 03:44:53;;;;;;;6.25;2.15;;;;;;;-6.82;56.35;99449.31;4782627;28;20062;-68
2022/12/16 03:47:43;;;;;;;7.32;2.70;;;;;;;-7.04;56.97;99438.31;4787122;28;20052;-67
2022/12/16 03:50:24;;;;;;;11.15;2.50;;;;;;;-7.43;57.75;99347.03;4765327;28;20100;-67
2022/12/16 03:58:54;;;;;;;3.88;1.70;;;;;;;-6.72;57.32;99451.41;4810773;28;20572;-68
2022/12/16 04:01:33;;;;;;;7.53;2.30;;;;;;;-6.73;57.16;99449.69;4778122;29;20079;-69
2022/12/16 04:04:24;;;;;;;7.38;2.25;;;;;;;-6.68;57.20;99447.31;4755767;29;20044;-69
2022/12/16 04:07:32;;;;;;;7.18;2.33;;;;;;;-6.40;57.90;99459.41;4772491;28;20080;-68
2022/12/16 04:24:17;;;;;;;4.47;2.17;;;;;;;-6.15;57.90;99456.97;4776949;28;20054;-68
2022/12/16 04:25:47;;;;;;;8.82;2.58;;;;;;;-5.37;57.87;99481.78;4871428;28;20049;-69
2022/12/16 04:28:35;;;;;;;5.03;2.38;;;;;;;-5.38;57.36;99474.09;4874627;28;20432;-68
2022/12/16 04:31:22;;;;;;;7.85;2.90;;;;;;;-5.48;57.44;99483.97;4886537;28;20117;-66
2022/12/16 04:34:24;;;;;;;5.10;2.30;;;;;;;-5.39;58.56;99488.53;4904890;28;20945;-69
